createdAt,value
2019-04-04T00:00:06.638Z,6.40
2019-04-04T00:02:35.071Z,6.30
2019-04-04T00:05:04.063Z,6.30
2019-04-04T00:07:32.774Z,6.30
2019-04-04T00:10:02.116Z,6.20
2019-04-04T00:12:31.676Z,6.20
2019-04-04T00:15:00.110Z,6.20
2019-04-04T00:17:28.847Z,6.10
2019-04-04T00:19:59.001Z,6.10
2019-04-04T00:22:27.431Z,6.10
2019-04-04T00:24:55.863Z,6.00
2019-04-04T00:27:24.283Z,6.00
2019-04-04T00:29:52.969Z,6.00
2019-04-04T00:32:21.719Z,6.00
2019-04-04T00:34:50.188Z,6.00
2019-04-04T00:37:18.899Z,6.00
2019-04-04T00:39:47.324Z,5.90
2019-04-04T00:42:16.982Z,5.90
2019-04-04T00:44:46.284Z,5.90
2019-04-04T00:47:14.712Z,5.80
2019-04-04T00:49:43.157Z,5.80
2019-04-04T00:52:12.765Z,5.80
2019-04-04T00:54:42.994Z,5.80
2019-04-04T00:57:11.715Z,5.70
2019-04-04T00:59:40.152Z,5.70
2019-04-04T01:02:09.520Z,5.70
2019-04-04T01:04:38.023Z,5.60
2019-04-04T01:07:06.968Z,5.50
2019-04-04T01:09:35.472Z,5.50
2019-04-04T01:12:04.270Z,5.50
2019-04-04T01:14:32.710Z,5.50
2019-04-04T01:17:03.762Z,5.50
2019-04-04T01:19:31.818Z,5.50
2019-04-04T01:22:00.547Z,5.50
2019-04-04T01:24:29.755Z,5.50
2019-04-04T01:26:58.728Z,5.50
2019-04-04T01:29:28.061Z,5.50
2019-04-04T01:31:56.488Z,5.50
2019-04-04T01:34:24.921Z,5.50
2019-04-04T01:36:56.004Z,5.50
2019-04-04T01:39:24.118Z,5.50
2019-04-04T01:41:52.556Z,5.40
2019-04-04T01:44:20.991Z,5.50
2019-04-04T01:46:49.424Z,5.40
2019-04-04T01:49:19.116Z,5.40
2019-04-04T01:51:48.033Z,5.40
2019-04-04T01:54:16.469Z,5.40
2019-04-04T01:56:45.153Z,5.40
2019-04-04T01:59:13.658Z,5.40
2019-04-04T02:01:42.431Z,5.30
2019-04-04T02:04:11.225Z,5.30
2019-04-04T02:06:39.652Z,5.20
2019-04-04T02:09:08.708Z,5.20
2019-04-04T02:11:37.528Z,5.10
2019-04-04T02:14:06.905Z,5.20
2019-04-04T02:16:35.413Z,5.20
2019-04-04T02:19:04.284Z,5.10
2019-04-04T02:21:32.713Z,5.10
2019-04-04T02:24:02.018Z,5.10
2019-04-04T02:26:30.580Z,5.10
2019-04-04T02:28:59.077Z,5.10
2019-04-04T02:31:29.223Z,5.10
2019-04-04T02:33:57.969Z,5.00
2019-04-04T02:36:26.661Z,5.00
2019-04-04T02:39:07.631Z,5.10
2019-04-04T02:41:36.393Z,5.10
2019-04-04T02:44:05.359Z,5.10
2019-04-04T02:46:34.205Z,5.10
2019-04-04T02:49:02.637Z,5.00
2019-04-04T02:51:31.148Z,5.00
2019-04-04T02:53:59.577Z,5.00
2019-04-04T02:56:28.089Z,5.00
2019-04-04T02:58:56.780Z,4.90
2019-04-04T03:01:25.228Z,4.90
2019-04-04T03:03:54.013Z,4.90
2019-04-04T03:06:24.485Z,4.90
2019-04-04T03:08:52.830Z,4.90
2019-04-04T03:11:21.969Z,4.80
2019-04-04T03:13:51.344Z,4.70
2019-04-04T03:16:21.622Z,4.60
2019-04-04T03:18:49.944Z,4.60
2019-04-04T03:21:21.970Z,4.60
2019-04-04T03:23:49.162Z,4.60
2019-04-04T03:26:20.209Z,4.70
2019-04-04T03:28:48.125Z,4.70
2019-04-04T03:31:16.545Z,4.70
2019-04-04T03:33:45.378Z,4.70
2019-04-04T03:36:14.148Z,4.70
2019-04-04T03:38:46.138Z,4.70
2019-04-04T03:41:13.085Z,4.70
2019-04-04T03:43:41.852Z,4.70
2019-04-04T03:46:12.597Z,4.70
2019-04-04T03:48:41.289Z,4.70
2019-04-04T03:51:09.730Z,4.70
2019-04-04T03:53:39.804Z,4.70
2019-04-04T03:56:27.918Z,4.70
2019-04-04T03:58:59.734Z,4.70
2019-04-04T04:01:26.691Z,4.80
2019-04-04T04:03:55.694Z,4.80
2019-04-04T04:06:24.626Z,4.70
2019-04-04T04:08:54.869Z,4.70
2019-04-04T04:11:23.549Z,4.70
2019-04-04T04:13:52.048Z,4.70
2019-04-04T04:16:20.506Z,4.70
2019-04-04T04:18:54.194Z,4.70
2019-04-04T04:21:19.733Z,4.60
2019-04-04T04:23:50.029Z,4.60
2019-04-04T04:26:18.963Z,4.60
2019-04-04T04:28:52.138Z,4.60
2019-04-04T04:31:17.554Z,4.60
2019-04-04T04:33:46.007Z,4.60
2019-04-04T04:36:15.809Z,4.60
2019-04-04T04:38:44.597Z,4.70
2019-04-04T04:41:13.044Z,4.70
2019-04-04T04:43:41.489Z,4.70
2019-04-04T04:46:10.213Z,4.80
2019-04-04T04:48:38.650Z,4.80
2019-04-04T04:51:07.088Z,4.90
2019-04-04T04:53:35.880Z,4.90
2019-04-04T04:56:06.826Z,4.90
2019-04-04T04:58:35.604Z,4.90
2019-04-04T05:01:04.053Z,5.00
2019-04-04T05:03:32.784Z,5.00
2019-04-04T05:06:02.664Z,5.10
2019-04-04T05:08:31.794Z,5.10
2019-04-04T05:11:00.592Z,5.10
2019-04-04T05:13:29.019Z,5.20
2019-04-04T05:15:57.793Z,5.20
2019-04-04T05:18:26.572Z,5.30
2019-04-04T05:20:57.394Z,5.30
2019-04-04T05:23:25.787Z,5.40
2019-04-04T05:25:54.552Z,5.40
2019-04-04T05:28:23.054Z,5.40
2019-04-04T05:30:51.756Z,5.40
2019-04-04T05:33:22.689Z,5.40
2019-04-04T05:35:50.425Z,5.50
2019-04-04T05:38:18.893Z,5.50
2019-04-04T05:40:47.353Z,5.50
2019-04-04T05:43:15.866Z,5.60
2019-04-04T05:45:45.332Z,5.60
2019-04-04T05:48:14.732Z,5.60
2019-04-04T05:50:43.642Z,5.60
2019-04-04T05:53:12.881Z,5.70
2019-04-04T05:55:41.874Z,5.80
2019-04-04T05:58:10.952Z,5.80
2019-04-04T06:00:41.361Z,5.80
2019-04-04T06:03:09.790Z,5.80
2019-04-04T06:05:38.229Z,5.90
2019-04-04T06:08:08.194Z,5.90
2019-04-04T06:10:37.240Z,6.00
2019-04-04T06:13:06.580Z,6.00
2019-04-04T06:15:35.340Z,6.00
2019-04-04T06:18:04.024Z,6.10
2019-04-04T06:20:32.718Z,6.10
2019-04-04T06:23:03.087Z,6.20
2019-04-04T06:25:35.624Z,6.10
2019-04-04T06:28:02.243Z,6.10
2019-04-04T06:30:42.596Z,6.10
2019-04-04T06:33:03.923Z,6.10
2019-04-04T06:35:31.812Z,6.10
2019-04-04T06:38:00.248Z,6.20
2019-04-04T06:40:30.326Z,6.20
2019-04-04T06:42:59.109Z,6.20
2019-04-04T06:45:29.715Z,6.10
2019-04-04T06:47:58.260Z,6.00
2019-04-04T06:50:27.229Z,5.90
2019-04-04T06:52:56.668Z,5.90
2019-04-04T06:55:28.442Z,5.90
2019-04-04T06:57:55.856Z,5.90
2019-04-04T07:00:24.645Z,5.90
2019-04-04T07:02:55.170Z,5.90
2019-04-04T07:05:23.241Z,6.00
2019-04-04T07:07:51.944Z,6.00
2019-04-04T07:10:21.755Z,6.10
2019-04-04T07:12:50.864Z,6.10
2019-04-04T07:15:19.305Z,6.30
2019-04-04T07:17:47.735Z,6.30
2019-04-04T07:20:17.126Z,6.40
2019-04-04T07:22:46.341Z,6.40
2019-04-04T07:25:15.134Z,6.50
2019-04-04T07:27:45.324Z,6.50
2019-04-04T07:30:15.543Z,6.50
2019-04-04T07:32:44.065Z,6.50
2019-04-04T07:35:12.861Z,6.70
2019-04-04T07:37:41.295Z,6.70
2019-04-04T07:40:10.316Z,6.90
2019-04-04T07:42:40.336Z,7.10
2019-04-04T07:45:09.316Z,7.20
2019-04-04T07:47:38.050Z,7.20
2019-04-04T07:50:07.556Z,7.30
2019-04-04T07:52:36.244Z,7.20
2019-04-04T07:55:05.673Z,7.30
2019-04-04T07:57:34.189Z,7.40
2019-04-04T08:00:02.640Z,7.20
2019-04-04T08:02:31.070Z,7.20
2019-04-04T08:04:59.500Z,7.30
2019-04-04T08:07:27.948Z,7.40
2019-04-04T08:09:56.672Z,7.40
2019-04-04T08:12:46.241Z,7.40
2019-04-04T08:15:14.672Z,7.50
2019-04-04T08:17:43.162Z,7.60
2019-04-04T08:20:12.435Z,7.50
2019-04-04T08:22:40.883Z,7.60
2019-04-04T08:25:30.565Z,7.60
2019-04-04T08:27:59.256Z,7.70
2019-04-04T08:30:27.696Z,7.70
2019-04-04T08:32:56.133Z,7.60
2019-04-04T08:35:25.515Z,7.60
2019-04-04T08:37:54.212Z,7.60
2019-04-04T08:40:22.665Z,7.60
2019-04-04T08:42:51.105Z,7.60
2019-04-04T08:45:19.880Z,7.60
2019-04-04T08:47:48.312Z,7.70
2019-04-04T08:50:16.770Z,7.80
2019-04-04T08:52:45.544Z,7.80
2019-04-04T08:55:13.973Z,7.80
2019-04-04T08:57:42.452Z,7.90
2019-04-04T09:00:11.765Z,7.90
2019-04-04T09:02:40.201Z,8.00
2019-04-04T09:05:29.766Z,8.10
2019-04-04T09:07:58.219Z,8.20
2019-04-04T09:10:26.938Z,8.20
2019-04-04T09:12:55.388Z,8.30
2019-04-04T09:15:23.887Z,8.40
2019-04-04T09:17:52.601Z,8.40
2019-04-04T09:20:21.394Z,8.40
2019-04-04T09:22:50.188Z,8.50
2019-04-04T09:25:18.881Z,8.50
2019-04-04T09:27:47.308Z,8.60
2019-04-04T09:30:16.292Z,8.60
2019-04-04T09:32:44.707Z,8.50
2019-04-04T09:35:13.736Z,8.70
2019-04-04T09:37:42.160Z,8.60
2019-04-04T09:40:11.933Z,8.50
2019-04-04T09:42:40.360Z,8.60
2019-04-04T09:45:10.280Z,8.70
2019-04-04T09:47:39.029Z,8.80
2019-04-04T09:50:08.829Z,8.70
2019-04-04T09:52:37.642Z,8.60
2019-04-04T09:55:09.960Z,8.60
2019-04-04T09:57:38.700Z,8.70
2019-04-04T10:00:12.918Z,8.90
2019-04-04T10:02:41.572Z,8.90
2019-04-04T10:05:10.511Z,9.00
2019-04-04T10:07:39.123Z,9.00
2019-04-04T10:10:10.188Z,9.10
2019-04-04T10:12:38.696Z,9.20
2019-04-04T10:15:08.770Z,9.20
2019-04-04T10:17:37.548Z,9.20
2019-04-04T10:20:27.083Z,9.30
2019-04-04T10:22:55.525Z,9.40
2019-04-04T10:25:23.952Z,9.30
2019-04-04T10:27:52.766Z,9.50
2019-04-04T10:30:21.555Z,9.50
2019-04-04T10:32:49.995Z,9.50
2019-04-04T10:35:18.419Z,9.50
2019-04-04T10:37:47.227Z,9.50
2019-04-04T10:40:16.219Z,9.50
2019-04-04T10:42:44.909Z,9.50
2019-04-04T10:45:15.752Z,9.40
2019-04-04T10:47:44.198Z,9.30
2019-04-04T10:50:13.122Z,9.30
2019-04-04T10:52:41.570Z,9.40
2019-04-04T10:55:10.500Z,9.60
2019-04-04T10:57:38.933Z,9.60
2019-04-04T11:00:09.118Z,9.70
2019-04-04T11:02:38.748Z,9.70
2019-04-04T11:05:08.027Z,9.70
2019-04-04T11:07:36.816Z,9.90
2019-04-04T11:10:26.121Z,9.80
2019-04-04T11:12:54.553Z,9.90
2019-04-04T11:15:22.990Z,9.90
2019-04-04T11:17:51.579Z,9.90
2019-04-04T11:20:20.020Z,9.90
2019-04-04T11:22:48.456Z,9.90
2019-04-04T11:25:16.941Z,9.80
2019-04-04T11:27:45.414Z,9.80
2019-04-04T11:30:14.201Z,9.70
2019-04-04T11:32:42.628Z,9.60
2019-04-04T11:35:11.061Z,9.50
2019-04-04T11:37:39.486Z,9.50
2019-04-04T11:40:08.243Z,9.50
2019-04-04T11:42:37.664Z,9.60
2019-04-04T11:45:06.838Z,9.70
2019-04-04T11:47:35.273Z,9.70
2019-04-04T11:50:06.255Z,9.60
2019-04-04T11:52:34.702Z,9.70
2019-04-04T11:55:03.295Z,9.70
2019-04-04T11:57:32.010Z,9.80
2019-04-04T12:00:00.436Z,9.90
2019-04-04T12:02:32.350Z,9.90
2019-04-04T12:04:59.998Z,9.90
2019-04-04T12:07:28.444Z,9.90
2019-04-04T12:10:06.771Z,10.10
2019-04-04T12:12:27.048Z,10.10
2019-04-04T12:14:56.825Z,10.10
2019-04-04T12:17:25.512Z,9.90
2019-04-04T12:19:53.961Z,9.80
2019-04-04T12:22:22.389Z,9.90
2019-04-04T12:24:51.180Z,9.90
2019-04-04T12:27:19.613Z,9.90
2019-04-04T12:29:48.052Z,10.10
2019-04-04T12:32:16.839Z,10.10
2019-04-04T12:34:45.295Z,10.20
2019-04-04T12:37:14.015Z,10.20
2019-04-04T12:39:44.358Z,10.20
2019-04-04T12:42:14.326Z,10.10
2019-04-04T12:44:43.169Z,10.10
2019-04-04T12:47:11.653Z,10.10
2019-04-04T12:49:41.364Z,10.20
2019-04-04T12:52:09.856Z,10.00
2019-04-04T12:54:38.287Z,9.90
2019-04-04T12:57:07.937Z,9.90
2019-04-04T12:59:36.731Z,10.00
2019-04-04T13:02:05.865Z,9.90
2019-04-04T13:04:34.309Z,9.80
2019-04-04T13:07:03.677Z,9.80
2019-04-04T13:09:32.110Z,9.80
2019-04-04T13:12:00.547Z,9.80
2019-04-04T13:14:29.955Z,9.80
2019-04-04T13:16:58.633Z,9.80
2019-04-04T13:19:27.081Z,9.80
2019-04-04T13:21:55.583Z,9.90
2019-04-04T13:24:24.022Z,9.80
2019-04-04T13:26:52.458Z,9.80
2019-04-04T13:29:20.895Z,9.90
2019-04-04T13:31:49.592Z,9.90
2019-04-04T13:34:18.035Z,9.90
2019-04-04T13:36:46.459Z,9.90
2019-04-04T13:39:15.254Z,9.90
2019-04-04T13:41:43.954Z,9.90
2019-04-04T13:44:12.744Z,10.00
2019-04-04T13:46:43.120Z,10.00
2019-04-04T13:49:11.576Z,10.00
2019-04-04T13:51:40.348Z,10.00
2019-04-04T13:54:09.141Z,10.00
2019-04-04T13:56:37.581Z,10.00
2019-04-04T13:59:06.425Z,10.00
2019-04-04T14:01:35.205Z,9.90
2019-04-04T14:04:04.572Z,9.90
2019-04-04T14:06:33.956Z,10.00
2019-04-04T14:09:02.408Z,10.00
2019-04-04T14:11:32.117Z,9.90
2019-04-04T14:14:00.553Z,9.90
2019-04-04T14:16:29.291Z,9.80
2019-04-04T14:18:57.982Z,9.80
2019-04-04T14:21:26.455Z,9.80
2019-04-04T14:23:56.892Z,9.90
2019-04-04T14:26:25.347Z,9.90
2019-04-04T14:28:54.077Z,9.90
2019-04-04T14:31:22.536Z,9.80
2019-04-04T14:33:51.251Z,9.80
2019-04-04T14:36:19.684Z,9.90
2019-04-04T14:38:48.129Z,9.90
2019-04-04T14:41:16.905Z,10.00
2019-04-04T14:43:45.361Z,9.90
2019-04-04T14:46:14.108Z,9.90
2019-04-04T14:48:43.186Z,9.90
2019-04-04T14:51:11.636Z,9.90
2019-04-04T14:53:40.096Z,10.00
2019-04-04T14:56:08.865Z,10.10
2019-04-04T14:58:37.374Z,10.10
2019-04-04T15:01:06.125Z,10.10
2019-04-04T15:03:34.573Z,10.20
2019-04-04T15:06:03.024Z,10.20
2019-04-04T15:08:31.462Z,10.30
2019-04-04T15:11:00.268Z,10.30
2019-04-04T15:13:28.704Z,10.20
2019-04-04T15:16:14.264Z,10.30
2019-04-04T15:18:43.026Z,10.30
2019-04-04T15:21:11.482Z,10.30
2019-04-04T15:23:40.156Z,10.40
2019-04-04T15:26:09.880Z,10.40
2019-04-04T15:28:38.527Z,10.40
2019-04-04T15:31:07.289Z,10.40
2019-04-04T15:33:35.724Z,10.40
2019-04-04T15:36:04.603Z,10.50
2019-04-04T15:38:33.469Z,10.40
2019-04-04T15:41:21.598Z,10.40
2019-04-04T15:43:50.038Z,10.40
2019-04-04T15:46:18.497Z,10.30
2019-04-04T15:48:46.936Z,10.40
2019-04-04T15:51:15.384Z,10.40
2019-04-04T15:53:44.133Z,10.30
2019-04-04T15:56:12.585Z,10.30
2019-04-04T15:58:41.029Z,10.20
2019-04-04T16:01:09.525Z,10.20
2019-04-04T16:03:38.965Z,10.20
2019-04-04T16:06:07.390Z,10.10
2019-04-04T16:08:36.160Z,10.00
2019-04-04T16:11:04.736Z,10.00
2019-04-04T16:13:33.443Z,10.00
2019-04-04T16:16:01.879Z,10.00
2019-04-04T16:18:30.320Z,10.00
2019-04-04T16:20:58.784Z,10.00
2019-04-04T16:23:27.490Z,10.00
2019-04-04T16:25:55.996Z,9.90
2019-04-04T16:28:24.550Z,9.90
2019-04-04T16:30:53.344Z,9.90
2019-04-04T16:33:22.708Z,9.90
2019-04-04T16:35:51.152Z,9.90
2019-04-04T16:38:19.577Z,9.90
2019-04-04T16:40:48.029Z,9.80
2019-04-04T16:43:16.456Z,9.80
2019-04-04T16:45:45.397Z,9.70
2019-04-04T16:48:14.733Z,9.80
2019-04-04T16:50:43.694Z,9.70
2019-04-04T16:53:12.481Z,9.70
2019-04-04T16:55:40.917Z,9.70
2019-04-04T16:58:09.715Z,9.60
2019-04-04T17:00:38.337Z,9.60
2019-04-04T17:03:07.161Z,9.50
2019-04-04T17:05:36.498Z,9.50
2019-04-04T17:08:05.556Z,9.50
2019-04-04T17:10:34.342Z,9.50
2019-04-04T17:13:02.772Z,9.50
2019-04-04T17:15:31.224Z,9.50
2019-04-04T17:17:59.660Z,9.50
2019-04-04T17:20:28.393Z,9.40
2019-04-04T17:22:57.996Z,9.40
2019-04-04T17:25:26.437Z,9.40
2019-04-04T17:27:54.871Z,9.30
2019-04-04T17:30:24.190Z,9.30
2019-04-04T17:32:52.889Z,9.30
2019-04-04T17:35:21.505Z,9.30
2019-04-04T17:37:50.352Z,9.20
2019-04-04T17:40:19.303Z,9.20
2019-04-04T17:42:47.850Z,9.20
2019-04-04T17:45:18.979Z,9.20
2019-04-04T17:47:47.756Z,9.20
2019-04-04T17:50:18.753Z,9.20
2019-04-04T17:52:48.136Z,9.20
2019-04-04T17:55:17.302Z,9.20
2019-04-04T17:57:45.749Z,9.10
2019-04-04T18:00:15.736Z,9.10
2019-04-04T18:02:45.185Z,9.10
2019-04-04T18:05:17.489Z,9.10
2019-04-04T18:10:21.952Z,9.10
2019-04-04T18:12:50.451Z,9.10
2019-04-04T18:15:40.094Z,9.10
2019-04-04T18:18:08.602Z,9.10
2019-04-04T18:20:37.024Z,9.10
2019-04-04T18:23:05.472Z,9.10
2019-04-04T18:25:33.908Z,9.10
2019-04-04T18:28:02.362Z,9.10
2019-04-04T18:30:31.056Z,9.00
2019-04-04T18:32:59.496Z,9.10
2019-04-04T18:35:28.052Z,9.10
2019-04-04T18:37:56.861Z,9.10
2019-04-04T18:40:26.208Z,9.10
2019-04-04T18:42:55.985Z,9.10
2019-04-04T18:45:24.436Z,9.10
2019-04-04T18:47:53.159Z,9.10
2019-04-04T18:50:21.950Z,9.10
2019-04-04T18:52:50.748Z,9.10
2019-04-04T18:55:20.367Z,9.10
2019-04-04T18:57:49.256Z,9.00
2019-04-04T19:00:18.013Z,9.00
2019-04-04T19:02:46.507Z,9.10
2019-04-04T19:05:15.396Z,9.10
2019-04-04T19:07:43.820Z,9.00
2019-04-04T19:10:12.912Z,9.00
2019-04-04T19:13:05.469Z,9.00
2019-04-04T19:15:31.256Z,9.00
2019-04-04T19:17:59.693Z,9.00
2019-04-04T19:20:28.136Z,9.00
2019-04-04T19:22:56.920Z,9.00
2019-04-04T19:25:25.716Z,9.10
2019-04-04T19:27:55.064Z,9.10
2019-04-04T19:30:23.788Z,9.10
2019-04-04T19:32:52.293Z,9.10
2019-04-04T19:35:20.729Z,9.10
2019-04-04T19:37:59.387Z,9.00
2019-04-04T19:40:19.975Z,9.00
2019-04-04T19:42:48.408Z,9.00
2019-04-04T19:45:17.896Z,9.00
2019-04-04T19:47:46.710Z,9.00
2019-04-04T19:50:15.381Z,9.00
2019-04-04T19:52:44.170Z,9.00
2019-04-04T19:55:12.686Z,8.90
2019-04-04T19:57:41.116Z,9.00
2019-04-04T20:00:11.516Z,8.90
2019-04-04T20:02:39.940Z,8.90
2019-04-04T20:05:09.021Z,8.90
2019-04-04T20:07:37.515Z,8.80
2019-04-04T20:10:07.395Z,8.70
2019-04-04T20:12:36.155Z,8.70
2019-04-04T20:15:07.224Z,8.70
2019-04-04T20:17:35.740Z,8.60
2019-04-04T20:20:08.766Z,8.60
2019-04-04T20:22:37.286Z,8.50
2019-04-04T20:25:06.791Z,8.50
2019-04-04T20:27:35.408Z,8.50
2019-04-04T20:30:07.417Z,8.60
2019-04-04T20:32:36.676Z,8.60
2019-04-04T20:35:08.746Z,8.70
2019-04-04T20:37:38.109Z,8.70
2019-04-04T20:40:07.233Z,8.70
2019-04-04T20:42:35.761Z,8.80
2019-04-04T20:45:05.684Z,8.80
2019-04-04T20:47:34.110Z,8.80
2019-04-04T20:50:03.079Z,8.80
2019-04-04T20:52:31.876Z,8.80
2019-04-04T20:55:00.674Z,8.90
2019-04-04T20:57:29.490Z,8.80
2019-04-04T20:59:57.922Z,8.90
2019-04-04T21:02:28.126Z,8.80
2019-04-04T21:04:56.956Z,8.80
2019-04-04T21:07:25.754Z,8.80
2019-04-04T21:09:54.463Z,8.80
2019-04-04T21:12:23.246Z,8.80
2019-04-04T21:14:51.677Z,8.90
2019-04-04T21:17:20.405Z,8.90
2019-04-04T21:19:50.429Z,8.80
2019-04-04T21:22:27.546Z,8.80
2019-04-04T21:24:49.092Z,8.80
2019-04-04T21:27:18.948Z,8.80
2019-04-04T21:29:47.552Z,8.80
2019-04-04T21:32:15.998Z,8.80
2019-04-04T21:34:44.718Z,8.80
2019-04-04T21:37:13.144Z,8.80
2019-04-04T21:39:41.586Z,8.80
2019-04-04T21:42:10.021Z,8.80
2019-04-04T21:44:38.456Z,8.70
2019-04-04T21:47:06.895Z,8.70
2019-04-04T21:49:35.333Z,8.70
2019-04-04T21:52:03.870Z,8.60
2019-04-04T21:54:32.700Z,8.60
2019-04-04T21:57:01.209Z,8.60
2019-04-04T21:59:29.676Z,8.60
2019-04-04T22:01:58.289Z,8.60
2019-04-04T22:04:27.058Z,8.50
2019-04-04T22:06:55.502Z,8.50
2019-04-04T22:09:23.936Z,8.50
2019-04-04T22:11:52.383Z,8.50
2019-04-04T22:14:22.303Z,8.50
2019-04-04T22:16:50.919Z,8.50
2019-04-04T22:19:19.704Z,8.50
2019-04-04T22:21:48.140Z,8.50
2019-04-04T22:24:16.572Z,8.50
2019-04-04T22:26:45.017Z,8.50
2019-04-04T22:29:13.616Z,8.50
2019-04-04T22:31:43.020Z,8.50
2019-04-04T22:34:11.745Z,8.50
2019-04-04T22:36:40.184Z,8.50
2019-04-04T22:39:09.057Z,8.50
2019-04-04T22:41:37.556Z,8.50
2019-04-04T22:44:06.058Z,8.50
2019-04-04T22:46:34.784Z,8.50
2019-04-04T22:49:03.225Z,8.50
2019-04-04T22:51:31.732Z,8.50
2019-04-04T22:54:00.164Z,8.40
2019-04-04T22:56:28.668Z,8.50
2019-04-04T22:58:57.429Z,8.40
2019-04-04T23:01:25.867Z,8.40
2019-04-04T23:03:54.589Z,8.40
2019-04-04T23:06:23.379Z,8.40
2019-04-04T23:08:51.820Z,8.40
2019-04-04T23:11:20.559Z,8.40
2019-04-04T23:13:48.988Z,8.40
2019-04-04T23:16:17.448Z,8.40
2019-04-04T23:18:46.223Z,8.40
2019-04-04T23:21:14.668Z,8.40
2019-04-04T23:23:43.393Z,8.40
2019-04-04T23:26:12.185Z,8.40
2019-04-04T23:28:40.876Z,8.30
2019-04-04T23:31:09.336Z,8.30
2019-04-04T23:33:38.052Z,8.40
2019-04-04T23:36:06.847Z,8.30
2019-04-04T23:38:35.287Z,8.40
2019-04-04T23:41:03.725Z,8.40
2019-04-04T23:43:32.532Z,8.40
2019-04-04T23:46:00.962Z,8.30
2019-04-04T23:48:29.689Z,8.30
2019-04-04T23:50:58.472Z,8.30
2019-04-04T23:53:26.912Z,8.40
2019-04-04T23:55:55.368Z,8.30
2019-04-04T23:58:24.132Z,8.30
